createdAt,value
2018-01-10T00:01:02.529Z,16.90
2018-01-10T00:03:31.368Z,7.63
2018-01-10T00:05:59.478Z,13.97
2018-01-10T00:08:28.357Z,11.10
2018-01-10T00:10:57.225Z,9.07
2018-01-10T00:13:25.290Z,7.50
2018-01-10T00:15:53.371Z,12.57
2018-01-10T00:18:21.447Z,9.63
2018-01-10T00:20:49.525Z,7.90
2018-01-10T00:23:17.568Z,7.80
2018-01-10T00:25:45.603Z,8.40
2018-01-10T00:28:13.628Z,6.30
2018-01-10T00:30:41.645Z,6.60
2018-01-10T00:33:09.669Z,11.50
2018-01-10T00:35:37.714Z,8.40
2018-01-10T00:38:05.745Z,9.80
2018-01-10T00:40:34.466Z,9.50
2018-01-10T00:43:02.482Z,9.53
2018-01-10T00:45:31.281Z,6.10
2018-01-10T00:48:00.085Z,8.47
2018-01-10T00:50:28.126Z,9.30
2018-01-10T00:52:56.154Z,7.70
2018-01-10T00:55:24.216Z,8.07
2018-01-10T00:57:52.237Z,14.00
2018-01-10T01:00:21.025Z,6.27
2018-01-10T01:02:49.040Z,9.87
2018-01-10T01:05:17.082Z,7.50
2018-01-10T01:07:45.867Z,6.27
2018-01-10T01:10:13.931Z,7.83
2018-01-10T01:12:42.749Z,7.80
2018-01-10T01:15:10.780Z,6.40
2018-01-10T01:17:38.804Z,7.03
2018-01-10T01:20:06.856Z,10.90
2018-01-10T01:22:34.899Z,5.63
2018-01-10T01:25:03.716Z,7.90
2018-01-10T01:27:31.756Z,6.93
2018-01-10T01:29:59.776Z,5.37
2018-01-10T01:32:27.780Z,10.93
2018-01-10T01:34:55.792Z,5.87
2018-01-10T01:37:23.820Z,7.13
2018-01-10T01:39:51.855Z,6.93
2018-01-10T01:42:19.878Z,7.10
2018-01-10T01:44:48.658Z,5.97
2018-01-10T01:47:16.733Z,10.77
2018-01-10T01:49:44.780Z,5.17
2018-01-10T01:52:12.789Z,5.50
2018-01-10T01:54:41.558Z,6.60
2018-01-10T01:57:09.596Z,7.27
2018-01-10T01:59:37.610Z,6.50
2018-01-10T02:02:06.404Z,5.63
2018-01-10T02:04:35.203Z,10.93
2018-01-10T02:07:03.228Z,6.20
2018-01-10T02:09:31.235Z,6.50
2018-01-10T02:11:59.920Z,6.03
2018-01-10T02:14:28.715Z,5.93
2018-01-10T02:16:56.756Z,5.03
2018-01-10T02:19:24.808Z,7.20
2018-01-10T02:21:52.867Z,5.20
2018-01-10T02:24:20.872Z,7.47
2018-01-10T02:26:48.891Z,5.70
2018-01-10T02:29:16.915Z,5.13
2018-01-10T02:31:45.715Z,5.60
2018-01-10T02:34:14.492Z,8.40
2018-01-10T02:36:43.290Z,6.67
2018-01-10T02:39:12.064Z,4.77
2018-01-10T02:41:40.082Z,7.90
2018-01-10T02:44:08.086Z,7.20
2018-01-10T02:46:36.088Z,8.43
2018-01-10T02:49:04.888Z,4.50
2018-01-10T02:51:32.927Z,3.73
2018-01-10T02:54:00.981Z,5.70
2018-01-10T02:56:29.036Z,3.87
2018-01-10T02:58:57.050Z,3.33
2018-01-10T03:01:25.816Z,7.53
2018-01-10T03:03:53.824Z,4.33
2018-01-10T03:06:21.836Z,4.37
2018-01-10T03:08:49.864Z,5.80
2018-01-10T03:11:17.891Z,5.53
2018-01-10T03:13:45.923Z,4.90
2018-01-10T03:16:13.982Z,5.67
2018-01-10T03:18:41.978Z,6.50
2018-01-10T03:21:09.981Z,9.93
2018-01-10T03:23:38.016Z,5.67
2018-01-10T03:26:06.047Z,4.00
2018-01-10T03:28:34.851Z,5.60
2018-01-10T03:31:02.889Z,4.30
2018-01-10T03:33:31.736Z,6.13
2018-01-10T03:35:59.779Z,7.87
2018-01-10T03:38:27.788Z,5.80
2018-01-10T03:40:55.821Z,7.77
2018-01-10T03:43:23.797Z,5.63
2018-01-10T03:45:51.851Z,4.03
2018-01-10T03:48:19.904Z,14.83
2018-01-10T03:50:48.701Z,6.30
2018-01-10T03:53:17.476Z,7.40
2018-01-10T03:55:46.279Z,7.80
2018-01-10T03:58:15.076Z,7.63
2018-01-10T04:00:43.100Z,6.33
2018-01-10T04:03:11.116Z,7.90
2018-01-10T04:05:39.164Z,9.40
2018-01-10T04:08:07.950Z,4.90
2018-01-10T04:10:35.956Z,4.47
2018-01-10T04:13:03.977Z,5.10
2018-01-10T04:15:32.020Z,7.10
2018-01-10T04:18:00.052Z,5.60
2018-01-10T04:20:28.069Z,4.80
2018-01-10T04:22:56.103Z,5.73
2018-01-10T04:25:24.163Z,7.30
2018-01-10T04:27:52.336Z,6.80
2018-01-10T04:30:21.136Z,9.17
2018-01-10T04:32:49.201Z,5.30
2018-01-10T04:35:17.261Z,6.27
2018-01-10T04:37:46.056Z,6.93
2018-01-10T04:40:14.060Z,5.50
2018-01-10T04:42:42.155Z,4.30
2018-01-10T04:45:10.206Z,3.53
2018-01-10T04:47:38.223Z,4.60
2018-01-10T04:50:07.060Z,8.60
2018-01-10T04:52:35.075Z,6.27
2018-01-10T04:55:03.162Z,4.70
2018-01-10T04:57:31.939Z,5.90
2018-01-10T05:00:00.760Z,5.80
2018-01-10T05:02:28.788Z,6.13
2018-01-10T05:04:56.804Z,6.50
2018-01-10T05:07:24.829Z,5.53
2018-01-10T05:09:52.883Z,7.00
2018-01-10T05:12:20.885Z,5.80
2018-01-10T05:14:49.718Z,6.03
2018-01-10T05:17:17.750Z,5.43
2018-01-10T05:19:46.564Z,7.40
2018-01-10T05:22:14.597Z,6.20
2018-01-10T05:24:43.367Z,6.73
2018-01-10T05:27:11.400Z,6.53
2018-01-10T05:29:39.417Z,5.33
2018-01-10T05:32:07.453Z,6.17
2018-01-10T05:34:35.489Z,5.70
2018-01-10T05:37:03.579Z,6.20
2018-01-10T05:39:31.615Z,5.23
2018-01-10T05:42:00.473Z,9.27
2018-01-10T05:44:28.554Z,4.20
2018-01-10T05:46:56.594Z,10.47
2018-01-10T05:49:24.608Z,4.33
2018-01-10T05:51:53.451Z,5.13
2018-01-10T05:54:21.461Z,14.10
2018-01-10T05:56:50.239Z,4.37
2018-01-10T05:59:18.275Z,6.10
2018-01-10T06:01:46.303Z,6.57
2018-01-10T06:04:15.077Z,5.60
2018-01-10T06:06:43.858Z,4.27
2018-01-10T06:09:11.888Z,8.50
2018-01-10T06:11:39.920Z,4.90
2018-01-10T06:14:08.715Z,4.33
2018-01-10T06:16:37.505Z,5.00
2018-01-10T06:19:05.739Z,4.30
2018-01-10T06:21:33.758Z,5.00
2018-01-10T06:24:01.770Z,14.00
2018-01-10T06:26:29.784Z,10.10
2018-01-10T06:28:58.587Z,5.83
2018-01-10T06:31:26.621Z,10.43
2018-01-10T06:33:54.642Z,6.97
2018-01-10T06:36:22.653Z,5.70
2018-01-10T06:38:50.733Z,6.67
2018-01-10T06:41:18.744Z,4.40
2018-01-10T06:43:46.781Z,5.17
2018-01-10T06:46:15.581Z,6.17
2018-01-10T06:48:43.628Z,8.43
2018-01-10T06:51:11.660Z,6.57
2018-01-10T06:53:39.707Z,7.18
2018-01-10T06:56:07.738Z,4.90
2018-01-10T06:58:36.542Z,5.55
2018-01-10T07:01:05.365Z,7.30
2018-01-10T07:03:33.390Z,12.20
2018-01-10T07:06:02.203Z,9.63
2018-01-10T07:08:30.255Z,6.70
2018-01-10T07:10:59.037Z,5.70
2018-01-10T07:13:27.843Z,5.60
2018-01-10T07:15:55.879Z,9.80
2018-01-10T07:18:23.893Z,9.82
2018-01-10T07:20:51.913Z,8.87
2018-01-10T07:23:20.006Z,4.12
2018-01-10T07:25:48.832Z,6.53
2018-01-10T07:28:16.884Z,6.13
2018-01-10T07:30:44.929Z,4.70
2018-01-10T07:33:12.955Z,5.90
2018-01-10T07:35:40.961Z,4.20
2018-01-10T07:38:09.028Z,5.97
2018-01-10T07:40:37.061Z,5.82
2018-01-10T07:43:05.093Z,5.45
2018-01-10T07:45:33.899Z,5.93
2018-01-10T07:48:01.948Z,6.87
2018-01-10T07:50:29.955Z,3.77
2018-01-10T07:52:58.000Z,6.07
2018-01-10T07:55:26.856Z,4.30
2018-01-10T07:57:54.874Z,4.80
2018-01-10T08:00:22.893Z,6.07
2018-01-10T08:02:50.917Z,6.00
2018-01-10T08:05:18.926Z,4.73
2018-01-10T08:07:46.941Z,4.67
2018-01-10T08:10:15.734Z,5.10
2018-01-10T08:12:43.776Z,5.07
2018-01-10T08:15:11.820Z,3.60
2018-01-10T08:17:42.816Z,5.70
2018-01-10T08:20:11.622Z,11.03
2018-01-10T08:22:39.638Z,10.17
2018-01-10T08:25:07.677Z,5.77
2018-01-10T08:27:35.697Z,9.23
2018-01-10T08:30:04.550Z,5.47
2018-01-10T08:32:32.591Z,4.70
2018-01-10T08:35:00.639Z,4.70
2018-01-10T08:37:29.440Z,5.53
2018-01-10T08:39:57.510Z,4.30
2018-01-10T08:42:25.519Z,8.00
2018-01-10T08:44:53.524Z,7.23
2018-01-10T08:47:21.544Z,8.17
2018-01-10T08:49:49.616Z,6.03
2018-01-10T08:52:17.647Z,6.63
2018-01-10T08:54:46.432Z,4.37
2018-01-10T08:57:15.229Z,5.37
2018-01-10T08:59:44.000Z,6.37
2018-01-10T09:02:12.061Z,3.70
2018-01-10T09:04:40.069Z,5.03
2018-01-10T09:07:08.081Z,6.23
2018-01-10T09:09:36.097Z,6.60
2018-01-10T09:12:04.911Z,6.20
2018-01-10T09:14:32.939Z,7.63
2018-01-10T09:17:00.973Z,3.87
2018-01-10T09:19:29.007Z,5.50
2018-01-10T09:21:57.020Z,4.53
2018-01-10T09:24:25.052Z,4.97
2018-01-10T09:26:53.083Z,5.43
2018-01-10T09:29:21.879Z,3.73
2018-01-10T09:31:50.735Z,3.60
2018-01-10T09:34:18.776Z,8.77
2018-01-10T09:36:46.812Z,8.70
2018-01-10T09:39:15.609Z,3.73
2018-01-10T09:41:44.419Z,5.67
2018-01-10T09:44:12.420Z,5.33
2018-01-10T09:46:40.467Z,4.17
2018-01-10T09:49:08.480Z,4.80
2018-01-10T09:51:36.519Z,5.70
2018-01-10T09:54:04.541Z,3.97
2018-01-10T09:56:33.324Z,10.60
2018-01-10T09:59:02.098Z,4.93
2018-01-10T10:01:30.135Z,6.13
2018-01-10T10:03:58.157Z,5.07
2018-01-10T10:06:26.956Z,5.40
2018-01-10T10:08:55.763Z,4.80
2018-01-10T10:11:23.850Z,6.47
2018-01-10T10:13:51.848Z,3.77
2018-01-10T10:16:19.876Z,8.43
2018-01-10T10:18:47.832Z,6.60
2018-01-10T10:21:16.624Z,6.93
2018-01-10T10:23:44.677Z,4.17
2018-01-10T10:26:13.452Z,3.53
2018-01-10T10:28:42.228Z,3.00
2018-01-10T10:31:10.245Z,4.47
2018-01-10T10:33:38.269Z,4.33
2018-01-10T10:36:06.272Z,5.60
2018-01-10T10:38:34.300Z,5.63
2018-01-10T10:41:02.333Z,3.23
2018-01-10T10:43:30.373Z,4.03
2018-01-10T10:45:59.211Z,3.33
2018-01-10T10:48:27.243Z,4.77
2018-01-10T10:50:55.263Z,4.50
2018-01-10T10:53:23.299Z,3.13
2018-01-10T10:55:51.331Z,4.47
2018-01-10T10:58:20.109Z,3.60
2018-01-10T11:00:48.206Z,3.77
2018-01-10T11:03:17.000Z,3.63
2018-01-10T11:05:45.028Z,2.90
2018-01-10T11:08:13.045Z,6.70
2018-01-10T11:10:41.090Z,3.20
2018-01-10T11:13:09.869Z,6.57
2018-01-10T11:15:37.936Z,8.47
2018-01-10T11:18:05.966Z,3.83
2018-01-10T11:20:33.994Z,9.70
2018-01-10T11:23:02.773Z,7.77
2018-01-10T11:25:30.793Z,5.10
2018-01-10T11:27:58.905Z,5.70
2018-01-10T11:30:26.978Z,5.60
2018-01-10T11:32:55.000Z,2.60
2018-01-10T11:35:23.009Z,4.70
2018-01-10T11:37:51.028Z,2.77
2018-01-10T11:40:19.111Z,2.37
2018-01-10T11:42:47.195Z,3.17
2018-01-10T11:45:15.231Z,2.50
2018-01-10T11:47:43.240Z,3.93
2018-01-10T11:50:11.195Z,2.17
2018-01-10T11:52:39.214Z,6.17
2018-01-10T11:55:07.287Z,2.60
2018-01-10T11:57:36.195Z,3.27
2018-01-10T12:00:05.018Z,3.47
2018-01-10T12:02:33.051Z,7.53
2018-01-10T12:05:01.852Z,3.00
2018-01-10T12:07:29.864Z,3.00
2018-01-10T12:09:57.866Z,2.83
2018-01-10T12:12:26.683Z,2.77
2018-01-10T12:14:54.706Z,5.20
2018-01-10T12:17:22.717Z,2.33
2018-01-10T12:19:51.544Z,3.43
2018-01-10T12:22:20.347Z,5.57
2018-01-10T12:24:48.415Z,2.00
2018-01-10T12:27:16.436Z,2.63
2018-01-10T12:29:45.224Z,2.70
2018-01-10T12:32:13.243Z,8.70
2018-01-10T12:34:41.289Z,3.10
2018-01-10T12:37:09.320Z,3.20
2018-01-10T12:39:38.174Z,2.50
2018-01-10T12:42:06.180Z,4.30
2018-01-10T12:44:34.964Z,3.20
2018-01-10T12:47:03.746Z,2.97
2018-01-10T12:49:31.790Z,3.10
2018-01-10T12:51:59.828Z,3.83
2018-01-10T12:54:27.828Z,3.70
2018-01-10T12:56:55.868Z,3.00
2018-01-10T12:59:23.926Z,2.40
2018-01-10T13:01:51.936Z,3.90
2018-01-10T13:04:19.964Z,2.40
2018-01-10T13:06:47.998Z,2.30
2018-01-10T13:09:16.016Z,2.07
2018-01-10T13:11:44.020Z,3.97
2018-01-10T13:14:12.043Z,3.37
2018-01-10T13:16:40.068Z,5.60
2018-01-10T13:19:08.161Z,3.47
2018-01-10T13:21:36.162Z,2.70
2018-01-10T13:24:04.173Z,3.33
2018-01-10T13:26:32.203Z,4.30
2018-01-10T13:29:00.224Z,2.43
2018-01-10T13:31:28.262Z,1.93
2018-01-10T13:33:56.304Z,2.90
2018-01-10T13:36:24.305Z,3.27
2018-01-10T13:38:52.708Z,3.70
2018-01-10T13:41:20.720Z,3.83
2018-01-10T13:43:49.492Z,3.57
2018-01-10T13:46:18.319Z,2.70
2018-01-10T13:48:46.392Z,8.03
2018-01-10T13:51:14.402Z,5.07
2018-01-10T13:53:43.187Z,4.53
2018-01-10T13:56:11.216Z,3.97
2018-01-10T13:58:39.241Z,3.53
2018-01-10T14:01:07.337Z,2.83
2018-01-10T14:03:36.118Z,4.20
2018-01-10T14:06:04.896Z,4.67
2018-01-10T14:08:33.659Z,2.37
2018-01-10T14:11:01.699Z,8.27
2018-01-10T14:13:29.737Z,1.63
2018-01-10T14:15:58.505Z,7.00
2018-01-10T14:18:26.589Z,3.53
2018-01-10T14:20:55.384Z,2.77
2018-01-10T14:23:24.180Z,4.00
2018-01-10T14:25:52.221Z,1.97
2018-01-10T14:28:20.236Z,1.70
2018-01-10T14:30:48.296Z,6.03
2018-01-10T14:33:16.370Z,12.03
2018-01-10T14:35:44.391Z,3.00
2018-01-10T14:38:12.429Z,4.50
2018-01-10T14:40:40.487Z,3.43
2018-01-10T14:43:08.487Z,12.53
2018-01-10T14:45:36.519Z,8.60
2018-01-10T14:48:04.537Z,2.83
2018-01-10T14:50:32.565Z,5.03
2018-01-10T14:53:00.599Z,4.03
2018-01-10T14:55:29.403Z,9.27
2018-01-10T14:57:58.216Z,11.33
2018-01-10T15:00:26.304Z,9.67
2018-01-10T15:02:54.306Z,9.70
2018-01-10T15:05:22.371Z,7.87
2018-01-10T15:07:50.383Z,7.93
2018-01-10T15:10:18.420Z,11.00
2018-01-10T15:12:46.459Z,11.23
2018-01-10T15:15:15.230Z,9.60
2018-01-10T15:17:43.233Z,11.53
2018-01-10T15:20:11.264Z,15.57
2018-01-10T15:22:39.294Z,8.47
2018-01-10T15:25:07.340Z,8.60
2018-01-10T15:27:35.361Z,9.10
2018-01-10T15:30:03.444Z,10.13
2018-01-10T15:32:31.495Z,7.30
2018-01-10T15:35:00.288Z,8.57
2018-01-10T15:37:28.308Z,9.50
2018-01-10T15:39:56.330Z,9.63
2018-01-10T15:42:24.349Z,13.53
2018-01-10T15:44:52.383Z,11.63
2018-01-10T15:47:20.408Z,7.60
2018-01-10T15:49:48.430Z,8.03
2018-01-10T15:52:16.453Z,10.37
2018-01-10T15:54:45.347Z,11.10
2018-01-10T15:57:13.437Z,12.73
2018-01-10T15:59:42.212Z,10.10
2018-01-10T16:02:11.043Z,11.53
2018-01-10T16:04:39.084Z,17.23
2018-01-10T16:07:07.880Z,15.47
2018-01-10T16:09:35.909Z,22.10
2018-01-10T16:12:03.964Z,14.80
2018-01-10T16:14:32.008Z,21.20
2018-01-10T16:17:00.041Z,13.93
2018-01-10T16:19:28.805Z,10.53
2018-01-10T16:21:56.833Z,14.97
2018-01-10T16:24:24.858Z,10.10
2018-01-10T16:26:52.956Z,14.10
2018-01-10T16:29:21.004Z,17.67
2018-01-10T16:31:49.045Z,18.80
2018-01-10T16:34:17.065Z,11.03
2018-01-10T16:36:45.887Z,16.60
2018-01-10T16:39:13.909Z,10.60
2018-01-10T16:41:42.703Z,11.20
2018-01-10T16:44:11.535Z,13.40
2018-01-10T16:46:39.543Z,13.17
2018-01-10T16:49:07.666Z,14.80
2018-01-10T16:51:35.662Z,14.53
2018-01-10T16:54:03.685Z,28.60
2018-01-10T16:56:31.683Z,25.13
2018-01-10T16:58:59.699Z,20.43
2018-01-10T17:01:27.733Z,19.40
2018-01-10T17:03:55.731Z,14.87
2018-01-10T17:06:23.723Z,15.97
2018-01-10T17:08:52.525Z,20.73
2018-01-10T17:11:20.541Z,18.30
2018-01-10T17:13:48.532Z,15.27
2018-01-10T17:16:16.516Z,14.70
2018-01-10T17:18:45.396Z,28.17
2018-01-10T17:21:13.419Z,16.97
2018-01-10T17:23:41.398Z,16.83
2018-01-10T17:26:09.375Z,22.77
2018-01-10T17:28:37.373Z,22.03
2018-01-10T17:31:05.445Z,18.97
2018-01-10T17:33:33.435Z,18.80
2018-01-10T17:36:02.203Z,19.97
2018-01-10T17:38:30.303Z,20.47
2018-01-10T17:40:58.286Z,25.10
2018-01-10T17:43:26.331Z,24.50
2018-01-10T17:45:55.102Z,27.80
2018-01-10T17:48:23.090Z,25.70
2018-01-10T17:50:52.118Z,27.37
2018-01-10T17:53:20.139Z,23.50
2018-01-10T17:55:49.022Z,18.87
2018-01-10T17:58:17.057Z,28.47
2018-01-10T18:00:45.101Z,25.33
2018-01-10T18:03:13.094Z,25.17
2018-01-10T18:05:41.131Z,21.13
2018-01-10T18:08:09.341Z,23.53
2018-01-10T18:10:38.436Z,21.70
2018-01-10T18:13:06.450Z,22.73
2018-01-10T18:15:35.249Z,20.80
2018-01-10T18:18:04.012Z,18.00
2018-01-10T18:20:32.234Z,22.07
2018-01-10T18:23:00.260Z,17.80
2018-01-10T18:25:28.235Z,27.03
2018-01-10T18:27:57.019Z,21.40
2018-01-10T18:30:25.047Z,21.80
2018-01-10T18:32:53.035Z,30.03
2018-01-10T18:35:21.038Z,25.50
2018-01-10T18:37:49.814Z,22.20
2018-01-10T18:40:17.823Z,20.27
2018-01-10T18:42:45.925Z,19.90
2018-01-10T18:45:13.959Z,22.63
2018-01-10T18:47:41.950Z,28.83
2018-01-10T18:50:09.938Z,24.30
2018-01-10T18:52:37.967Z,23.77
2018-01-10T18:55:05.995Z,39.90
2018-01-10T18:57:33.997Z,30.17
2018-01-10T19:00:02.740Z,36.47
2018-01-10T19:02:30.767Z,44.50
2018-01-10T19:04:58.751Z,36.30
2018-01-10T19:07:26.731Z,38.77
2018-01-10T19:09:54.738Z,59.20
2018-01-10T19:12:22.794Z,50.03
2018-01-10T19:14:50.771Z,43.30
2018-01-10T19:17:18.785Z,31.57
2018-01-10T19:19:47.848Z,98.33
2018-01-10T19:22:15.946Z,102.00
2018-01-10T19:24:43.953Z,73.80
2018-01-10T19:27:11.953Z,49.17
2018-01-10T19:29:40.024Z,40.77
2018-01-10T19:32:08.004Z,36.90
2018-01-10T19:34:36.825Z,37.27
2018-01-10T19:37:04.842Z,26.53
2018-01-10T19:39:32.828Z,27.17
2018-01-10T19:42:01.587Z,28.63
2018-01-10T19:44:29.594Z,21.30
2018-01-10T19:46:58.390Z,24.93
2018-01-10T19:49:27.143Z,25.67
2018-01-10T19:51:55.130Z,25.70
2018-01-10T19:54:23.938Z,26.30
2018-01-10T19:56:51.920Z,23.60
2018-01-10T19:59:19.930Z,29.10
2018-01-10T20:01:47.939Z,29.23
2018-01-10T20:04:16.729Z,29.37
2018-01-10T20:06:45.517Z,29.13
2018-01-10T20:09:14.322Z,34.73
2018-01-10T20:11:42.342Z,29.10
2018-01-10T20:14:10.341Z,27.83
2018-01-10T20:16:39.080Z,36.00
2018-01-10T20:19:07.161Z,26.67
2018-01-10T20:21:35.165Z,31.20
2018-01-10T20:24:03.954Z,32.33
2018-01-10T20:26:32.921Z,27.23
2018-01-10T20:29:00.908Z,29.83
2018-01-10T20:31:29.678Z,30.80
2018-01-10T20:33:57.668Z,27.20
2018-01-10T20:36:26.446Z,33.83
2018-01-10T20:38:54.454Z,32.97
2018-01-10T20:41:22.448Z,29.30
2018-01-10T20:43:50.450Z,27.83
2018-01-10T20:46:18.430Z,27.57
2018-01-10T20:48:47.295Z,31.00
2018-01-10T20:51:15.294Z,30.70
2018-01-10T20:53:44.048Z,26.33
2018-01-10T20:56:12.826Z,33.50
2018-01-10T20:58:40.811Z,34.67
2018-01-10T21:01:08.802Z,50.73
2018-01-10T21:03:36.822Z,30.23
2018-01-10T21:06:04.820Z,32.77
2018-01-10T21:08:32.835Z,31.27
2018-01-10T21:11:00.812Z,31.60
2018-01-10T21:13:28.784Z,27.90
2018-01-10T21:15:56.791Z,36.57
2018-01-10T21:18:24.806Z,35.90
2018-01-10T21:20:52.806Z,32.27
2018-01-10T21:23:20.843Z,37.40
2018-01-10T21:25:49.582Z,35.47
2018-01-10T21:28:17.600Z,35.97
2018-01-10T21:30:46.387Z,30.40
2018-01-10T21:33:15.161Z,39.00
2018-01-10T21:35:43.950Z,36.53
2018-01-10T21:38:12.718Z,36.27
2018-01-10T21:40:40.737Z,37.90
2018-01-10T21:43:08.737Z,40.23
2018-01-10T21:45:36.775Z,38.60
2018-01-10T21:48:04.763Z,36.97
2018-01-10T21:50:32.758Z,40.07
2018-01-10T21:53:00.744Z,37.53
2018-01-10T21:55:28.754Z,44.30
2018-01-10T21:57:56.728Z,41.23
2018-01-10T22:00:24.759Z,34.83
2018-01-10T22:02:52.779Z,40.30
2018-01-10T22:05:21.726Z,37.13
2018-01-10T22:07:50.485Z,40.87
2018-01-10T22:10:18.487Z,51.97
2018-01-10T22:12:47.232Z,43.17
2018-01-10T22:15:15.226Z,45.07
2018-01-10T22:17:43.247Z,45.10
2018-01-10T22:20:11.237Z,47.17
2018-01-10T22:22:40.022Z,47.17
2018-01-10T22:25:08.777Z,41.97
2018-01-10T22:27:36.803Z,46.43
2018-01-10T22:30:04.832Z,46.20
2018-01-10T22:32:32.849Z,43.20
2018-01-10T22:35:00.854Z,59.73
2018-01-10T22:37:28.871Z,44.50
2018-01-10T22:39:56.851Z,56.93
2018-01-10T22:42:24.836Z,52.33
2018-01-10T22:44:53.660Z,45.03
2018-01-10T22:47:21.648Z,50.93
2018-01-10T22:49:49.667Z,47.80
2018-01-10T22:52:18.466Z,52.23
2018-01-10T22:54:47.225Z,55.03
2018-01-10T22:57:15.237Z,51.13
2018-01-10T22:59:43.220Z,66.13
2018-01-10T23:02:11.242Z,49.40
2018-01-10T23:04:39.222Z,59.10
2018-01-10T23:07:08.266Z,50.40
2018-01-10T23:09:36.538Z,61.80
2018-01-10T23:12:04.804Z,50.33
2018-01-10T23:14:33.056Z,56.57
2018-01-10T23:17:05.700Z,48.63
2018-01-10T23:19:33.776Z,62.30
2018-01-10T23:22:01.837Z,59.97
2018-01-10T23:24:29.893Z,65.67
2018-01-10T23:26:57.951Z,61.10
2018-01-10T23:29:26.018Z,55.53
2018-01-10T23:31:54.056Z,72.10
2018-01-10T23:34:22.884Z,57.33
2018-01-10T23:36:51.706Z,57.27
2018-01-10T23:39:19.767Z,66.00
2018-01-10T23:41:47.844Z,55.60
2018-01-10T23:44:15.888Z,63.57
2018-01-10T23:46:43.925Z,57.40
2018-01-10T23:49:12.009Z,64.50
2018-01-10T23:51:40.066Z,62.07
2018-01-10T23:54:08.040Z,53.53
2018-01-10T23:56:36.040Z,53.80
2018-01-10T23:59:04.023Z,56.47
